sensor_id;sensor_type;location;lat;lon;timestamp;pressure;altitude;pressure_sealevel;temperature;humidity
54666;BME280;40566;50.006;36.180;2023-03-01T00:02:02;100070.22;;;-3.72;71.22
54666;BME280;40566;50.006;36.180;2023-03-01T00:07:04;100072.06;;;-3.68;70.95
54666;BME280;40566;50.006;36.180;2023-03-01T00:12:05;100060.31;;;-3.66;71.01
54666;BME280;40566;50.006;36.180;2023-03-01T00:17:06;100037.38;;;-3.72;71.14
54666;BME280;40566;50.006;36.180;2023-03-01T00:22:07;100013.66;;;-3.75;70.93
54666;BME280;40566;50.006;36.180;2023-03-01T00:27:07;99998.41;;;-3.79;71.01
54666;BME280;40566;50.006;36.180;2023-03-01T00:32:08;99997.44;;;-3.82;71.28
54666;BME280;40566;50.006;36.180;2023-03-01T00:37:08;99995.75;;;-3.82;71.20
54666;BME280;40566;50.006;36.180;2023-03-01T00:42:09;99988.28;;;-3.79;71.02
54666;BME280;40566;50.006;36.180;2023-03-01T00:47:10;99981.50;;;-3.80;71.15
54666;BME280;40566;50.006;36.180;2023-03-01T00:52:10;99976.50;;;-3.78;70.87
54666;BME280;40566;50.006;36.180;2023-03-01T00:57:11;99965.28;;;-3.86;71.22
54666;BME280;40566;50.006;36.180;2023-03-01T01:02:11;99963.72;;;-3.83;71.27
54666;BME280;40566;50.006;36.180;2023-03-01T01:07:13;99959.53;;;-3.82;71.08
54666;BME280;40566;50.006;36.180;2023-03-01T01:12:13;99944.38;;;-3.82;71.10
54666;BME280;40566;50.006;36.180;2023-03-01T01:17:14;99925.91;;;-3.80;71.20
54666;BME280;40566;50.006;36.180;2023-03-01T01:22:14;99927.06;;;-3.70;71.06
54666;BME280;40566;50.006;36.180;2023-03-01T01:27:15;99904.03;;;-3.53;70.40
54666;BME280;40566;50.006;36.180;2023-03-01T01:32:16;99917.75;;;-3.45;70.46
54666;BME280;40566;50.006;36.180;2023-03-01T01:37:16;99909.81;;;-3.29;70.33
54666;BME280;40566;50.006;36.180;2023-03-01T01:42:18;99904.94;;;-3.23;70.32
54666;BME280;40566;50.006;36.180;2023-03-01T01:47:21;99913.78;;;-3.08;70.08
54666;BME280;40566;50.006;36.180;2023-03-01T01:52:34;99912.16;;;-3.06;70.21
54666;BME280;40566;50.006;36.180;2023-03-01T01:57:45;99907.38;;;-2.97;70.06
54666;BME280;40566;50.006;36.180;2023-03-01T02:02:49;99909.38;;;-2.87;70.21
54666;BME280;40566;50.006;36.180;2023-03-01T02:07:52;99915.31;;;-2.85;70.09
54666;BME280;40566;50.006;36.180;2023-03-01T02:12:54;99899.25;;;-2.87;70.50
54666;BME280;40566;50.006;36.180;2023-03-01T02:17:56;99891.91;;;-2.77;70.37
54666;BME280;40566;50.006;36.180;2023-03-01T02:22:57;99884.31;;;-2.77;70.33
54666;BME280;40566;50.006;36.180;2023-03-01T02:33:13;99866.94;;;-2.65;70.35
54666;BME280;40566;50.006;36.180;2023-03-01T02:38:14;99852.81;;;-2.57;70.23
54666;BME280;40566;50.006;36.180;2023-03-01T02:43:16;99843.41;;;-2.63;70.47
54666;BME280;40566;50.006;36.180;2023-03-01T02:48:18;99836.69;;;-2.61;70.66
54666;BME280;40566;50.006;36.180;2023-03-01T02:53:29;99821.66;;;-2.54;70.58
54666;BME280;40566;50.006;36.180;2023-03-01T02:58:33;99820.97;;;-2.49;70.66
54666;BME280;40566;50.006;36.180;2023-03-01T03:03:41;99799.19;;;-2.42;70.43
54666;BME280;40566;50.006;36.180;2023-03-01T03:08:41;99790.53;;;-2.50;70.66
54666;BME280;40566;50.006;36.180;2023-03-01T03:13:42;99762.44;;;-2.60;71.03
54666;BME280;40566;50.006;36.180;2023-03-01T03:18:48;99744.09;;;-2.84;71.36
54666;BME280;40566;50.006;36.180;2023-03-01T03:23:48;99746.97;;;-3.02;71.98
54666;BME280;40566;50.006;36.180;2023-03-01T03:28:49;99722.88;;;-3.21;72.37
54666;BME280;40566;50.006;36.180;2023-03-01T03:33:50;99720.09;;;-3.30;72.40
54666;BME280;40566;50.006;36.180;2023-03-01T03:38:50;99715.09;;;-3.29;72.37
54666;BME280;40566;50.006;36.180;2023-03-01T03:43:51;99708.22;;;-3.33;72.16
54666;BME280;40566;50.006;36.180;2023-03-01T03:48:52;99708.47;;;-3.24;71.88
54666;BME280;40566;50.006;36.180;2023-03-01T03:53:52;99715.34;;;-3.18;71.73
54666;BME280;40566;50.006;36.180;2023-03-01T03:58:53;99721.63;;;-3.05;71.52
54666;BME280;40566;50.006;36.180;2023-03-01T04:03:53;99708.84;;;-3.10;71.19
54666;BME280;40566;50.006;36.180;2023-03-01T04:08:54;99703.53;;;-3.19;71.52
54666;BME280;40566;50.006;36.180;2023-03-01T04:13:58;99702.59;;;-3.23;71.64
54666;BME280;40566;50.006;36.180;2023-03-01T04:19:00;99711.91;;;-3.22;71.74
54666;BME280;40566;50.006;36.180;2023-03-01T04:24:00;99731.47;;;-3.14;71.56
54666;BME280;40566;50.006;36.180;2023-03-01T04:29:03;99736.75;;;-3.07;71.52
54666;BME280;40566;50.006;36.180;2023-03-01T04:34:04;99728.78;;;-2.89;71.11
54666;BME280;40566;50.006;36.180;2023-03-01T04:39:05;99724.03;;;-2.76;70.87
54666;BME280;40566;50.006;36.180;2023-03-01T04:44:12;99723.28;;;-2.74;70.77
54666;BME280;40566;50.006;36.180;2023-03-01T04:49:12;99716.63;;;-2.69;70.98
54666;BME280;40566;50.006;36.180;2023-03-01T04:54:13;99722.63;;;-2.65;70.93
54666;BME280;40566;50.006;36.180;2023-03-01T04:59:13;99728.59;;;-2.63;70.95
54666;BME280;40566;50.006;36.180;2023-03-01T05:04:14;99724.31;;;-2.66;71.10
54666;BME280;40566;50.006;36.180;2023-03-01T05:09:15;99726.19;;;-2.57;70.94
54666;BME280;40566;50.006;36.180;2023-03-01T05:14:16;99730.59;;;-2.50;70.82
54666;BME280;40566;50.006;36.180;2023-03-01T05:19:17;99737.41;;;-2.49;70.82
54666;BME280;40566;50.006;36.180;2023-03-01T05:24:23;99742.06;;;-2.29;70.54
54666;BME280;40566;50.006;36.180;2023-03-01T05:29:24;99737.94;;;-2.26;70.50
54666;BME280;40566;50.006;36.180;2023-03-01T05:34:27;99735.66;;;-2.15;70.62
54666;BME280;40566;50.006;36.180;2023-03-01T05:39:29;99737.59;;;-2.05;70.36
54666;BME280;40566;50.006;36.180;2023-03-01T05:44:30;99735.31;;;-1.92;70.28
54666;BME280;40566;50.006;36.180;2023-03-01T05:49:31;99730.28;;;-1.91;70.28
54666;BME280;40566;50.006;36.180;2023-03-01T05:54:32;99726.88;;;-1.93;70.52
54666;BME280;40566;50.006;36.180;2023-03-01T05:59:33;99727.22;;;-1.77;70.28
54666;BME280;40566;50.006;36.180;2023-03-01T06:04:34;99727.38;;;-1.70;70.08
54666;BME280;40566;50.006;36.180;2023-03-01T06:09:34;99722.47;;;-1.61;70.17
54666;BME280;40566;50.006;36.180;2023-03-01T06:14:35;99721.09;;;-1.45;69.78
54666;BME280;40566;50.006;36.180;2023-03-01T06:19:35;99699.16;;;-1.44;69.97
54666;BME280;40566;50.006;36.180;2023-03-01T06:24:37;99700.19;;;-1.33;70.02
54666;BME280;40566;50.006;36.180;2023-03-01T06:29:38;99719.81;;;-1.26;70.02
54666;BME280;40566;50.006;36.180;2023-03-01T06:34:38;99715.13;;;-1.04;69.72
54666;BME280;40566;50.006;36.180;2023-03-01T06:39:39;99715.63;;;-0.76;69.22
54666;BME280;40566;50.006;36.180;2023-03-01T06:44:40;99714.25;;;-0.57;68.75
54666;BME280;40566;50.006;36.180;2023-03-01T06:49:41;99713.03;;;-0.26;68.23
54666;BME280;40566;50.006;36.180;2023-03-01T06:54:41;99707.06;;;-0.30;68.32
54666;BME280;40566;50.006;36.180;2023-03-01T06:59:42;99701.91;;;-0.34;68.83
54666;BME280;40566;50.006;36.180;2023-03-01T07:04:43;99695.88;;;-0.43;69.03
54666;BME280;40566;50.006;36.180;2023-03-01T07:09:46;99684.16;;;-0.33;68.86
54666;BME280;40566;50.006;36.180;2023-03-01T07:14:48;99677.63;;;-0.14;68.40
54666;BME280;40566;50.006;36.180;2023-03-01T07:19:49;99695.34;;;-0.20;68.62
54666;BME280;40566;50.006;36.180;2023-03-01T07:24:49;99700.00;;;0.09;68.11
54666;BME280;40566;50.006;36.180;2023-03-01T07:29:50;99699.22;;;0.13;67.88
54666;BME280;40566;50.006;36.180;2023-03-01T07:34:51;99689.09;;;0.17;67.99
54666;BME280;40566;50.006;36.180;2023-03-01T07:39:51;99688.50;;;0.37;67.56
54666;BME280;40566;50.006;36.180;2023-03-01T07:44:52;99687.66;;;0.36;67.70
54666;BME280;40566;50.006;36.180;2023-03-01T07:49:52;99692.41;;;0.12;68.42
54666;BME280;40566;50.006;36.180;2023-03-01T07:54:53;99694.00;;;0.04;68.64
54666;BME280;40566;50.006;36.180;2023-03-01T07:59:54;99692.25;;;-0.01;68.92
54666;BME280;40566;50.006;36.180;2023-03-01T08:04:54;99690.63;;;0.05;69.03
54666;BME280;40566;50.006;36.180;2023-03-01T08:09:55;99703.31;;;0.03;68.82
54666;BME280;40566;50.006;36.180;2023-03-01T08:14:55;99696.66;;;0.13;68.94
54666;BME280;40566;50.006;36.180;2023-03-01T08:19:57;99698.56;;;0.28;68.49
54666;BME280;40566;50.006;36.180;2023-03-01T08:24:57;99695.34;;;0.43;67.89
54666;BME280;40566;50.006;36.180;2023-03-01T08:29:58;99701.31;;;0.45;68.00
54666;BME280;40566;50.006;36.180;2023-03-01T08:34:58;99701.38;;;0.51;67.87
54666;BME280;40566;50.006;36.180;2023-03-01T08:40:00;99700.41;;;0.39;68.20
54666;BME280;40566;50.006;36.180;2023-03-01T08:45:01;99705.28;;;0.23;68.80
54666;BME280;40566;50.006;36.180;2023-03-01T08:50:02;99701.25;;;0.38;68.57
54666;BME280;40566;50.006;36.180;2023-03-01T08:55:03;99688.47;;;0.35;68.51
54666;BME280;40566;50.006;36.180;2023-03-01T09:00:04;99696.91;;;0.31;68.64
54666;BME280;40566;50.006;36.180;2023-03-01T09:05:08;99695.22;;;0.32;68.88
54666;BME280;40566;50.006;36.180;2023-03-01T09:10:09;99686.91;;;0.44;68.65
54666;BME280;40566;50.006;36.180;2023-03-01T09:15:10;99688.16;;;0.83;68.12
54666;BME280;40566;50.006;36.180;2023-03-01T09:20:11;99691.06;;;1.18;67.32
54666;BME280;40566;50.006;36.180;2023-03-01T09:25:11;99680.38;;;1.61;66.50
54666;BME280;40566;50.006;36.180;2023-03-01T09:30:12;99664.78;;;2.75;64.06
54666;BME280;40566;50.006;36.180;2023-03-01T09:35:13;99663.13;;;3.04;63.69
54666;BME280;40566;50.006;36.180;2023-03-01T09:40:17;99664.84;;;3.03;63.85
54666;BME280;40566;50.006;36.180;2023-03-01T09:45:26;99659.75;;;3.12;64.46
54666;BME280;40566;50.006;36.180;2023-03-01T09:50:33;99658.06;;;3.44;63.59
54666;BME280;40566;50.006;36.180;2023-03-01T09:55:45;99668.22;;;2.79;65.40
54666;BME280;40566;50.006;36.180;2023-03-01T10:00:48;99662.09;;;2.32;66.66
54666;BME280;40566;50.006;36.180;2023-03-01T10:05:59;99666.19;;;2.00;67.26
54666;BME280;40566;50.006;36.180;2023-03-01T10:11:03;99676.28;;;1.83;67.70
54666;BME280;40566;50.006;36.180;2023-03-01T10:16:21;99663.50;;;1.79;67.49
54666;BME280;40566;50.006;36.180;2023-03-01T10:21:23;99666.03;;;1.72;67.23
54666;BME280;40566;50.006;36.180;2023-03-01T10:31:53;99667.53;;;1.45;67.68
54666;BME280;40566;50.006;36.180;2023-03-01T10:37:08;99680.22;;;1.42;67.76
54666;BME280;40566;50.006;36.180;2023-03-01T10:42:39;99681.91;;;1.37;67.89
54666;BME280;40566;50.006;36.180;2023-03-01T10:47:46;99679.25;;;1.28;68.17
54666;BME280;40566;50.006;36.180;2023-03-01T10:53:01;99686.56;;;1.92;67.05
54666;BME280;40566;50.006;36.180;2023-03-01T10:58:21;99674.72;;;2.02;66.29
54666;BME280;40566;50.006;36.180;2023-03-01T11:03:37;99679.72;;;1.88;67.02
54666;BME280;40566;50.006;36.180;2023-03-01T11:08:49;99682.22;;;1.83;67.46
54666;BME280;40566;50.006;36.180;2023-03-01T11:13:53;99669.63;;;2.09;66.97
54666;BME280;40566;50.006;36.180;2023-03-01T11:24:06;99652.28;;;5.13;59.62
54666;BME280;40566;50.006;36.180;2023-03-01T11:29:32;99656.63;;;5.06;59.80
54666;BME280;40566;50.006;36.180;2023-03-01T11:34:48;99669.09;;;3.80;63.59
54666;BME280;40566;50.006;36.180;2023-03-01T11:40:23;99663.16;;;3.27;65.33
54666;BME280;40566;50.006;36.180;2023-03-01T11:45:26;99664.84;;;3.22;65.51
54666;BME280;40566;50.006;36.180;2023-03-01T11:50:40;99659.75;;;3.26;65.35
54666;BME280;40566;50.006;36.180;2023-03-01T12:22:46;99702.25;;;2.75;66.35
54666;BME280;40566;50.006;36.180;2023-03-01T12:33:15;99756.16;;;1.78;68.26
54666;BME280;40566;50.006;36.180;2023-03-01T12:38:42;99765.06;;;1.29;69.22
54666;BME280;40566;50.006;36.180;2023-03-01T12:49:45;99797.03;;;1.02;69.33
54666;BME280;40566;50.006;36.180;2023-03-01T12:54:49;99784.56;;;1.25;68.66
54666;BME280;40566;50.006;36.180;2023-03-01T13:00:15;99793.38;;;1.58;67.46
54666;BME280;40566;50.006;36.180;2023-03-01T13:10:40;99811.06;;;1.43;67.00
54666;BME280;40566;50.006;36.180;2023-03-01T13:15:43;99805.16;;;1.45;66.93
54666;BME280;40566;50.006;36.180;2023-03-01T13:31:04;99807.13;;;1.74;66.62
54666;BME280;40566;50.006;36.180;2023-03-01T13:36:06;99818.38;;;1.99;65.99
54666;BME280;40566;50.006;36.180;2023-03-01T13:41:09;99821.84;;;2.09;65.73
54666;BME280;40566;50.006;36.180;2023-03-01T13:46:18;99813.38;;;2.13;65.46
54666;BME280;40566;50.006;36.180;2023-03-01T13:51:23;99820.28;;;2.26;65.18
54666;BME280;40566;50.006;36.180;2023-03-01T13:56:27;99816.97;;;2.38;64.86
54666;BME280;40566;50.006;36.180;2023-03-01T14:06:31;99824.28;;;1.92;65.57
54666;BME280;40566;50.006;36.180;2023-03-01T14:17:32;99838.47;;;1.64;65.42
54666;BME280;40566;50.006;36.180;2023-03-01T14:22:36;99840.13;;;1.62;65.13
54666;BME280;40566;50.006;36.180;2023-03-01T14:27:39;99849.38;;;1.52;65.17
54666;BME280;40566;50.006;36.180;2023-03-01T14:32:42;99855.31;;;1.46;64.71
54666;BME280;40566;50.006;36.180;2023-03-01T14:37:42;99860.34;;;1.43;64.72
54666;BME280;40566;50.006;36.180;2023-03-01T14:42:43;99874.69;;;1.33;64.54
54666;BME280;40566;50.006;36.180;2023-03-01T14:47:44;99877.13;;;1.26;64.66
54666;BME280;40566;50.006;36.180;2023-03-01T14:52:47;99883.91;;;1.24;64.37
54666;BME280;40566;50.006;36.180;2023-03-01T14:57:50;99888.09;;;1.18;64.20
54666;BME280;40566;50.006;36.180;2023-03-01T15:02:53;99888.78;;;1.05;64.30
54666;BME280;40566;50.006;36.180;2023-03-01T15:07:55;99898.66;;;0.84;64.50
54666;BME280;40566;50.006;36.180;2023-03-01T15:13:11;99895.84;;;0.65;64.67
54666;BME280;40566;50.006;36.180;2023-03-01T15:23:29;99905.22;;;0.68;64.37
54666;BME280;40566;50.006;36.180;2023-03-01T15:28:33;99904.47;;;0.75;64.07
54666;BME280;40566;50.006;36.180;2023-03-01T15:33:36;99917.31;;;0.81;63.85
54666;BME280;40566;50.006;36.180;2023-03-01T15:38:57;99922.44;;;0.84;63.77
54666;BME280;40566;50.006;36.180;2023-03-01T15:43:59;99927.59;;;0.89;63.74
54666;BME280;40566;50.006;36.180;2023-03-01T15:54:26;99931.00;;;0.91;63.86
54666;BME280;40566;50.006;36.180;2023-03-01T15:59:27;99934.38;;;0.88;63.74
54666;BME280;40566;50.006;36.180;2023-03-01T16:04:28;99936.78;;;0.77;63.75
54666;BME280;40566;50.006;36.180;2023-03-01T16:09:29;99940.75;;;0.60;64.09
54666;BME280;40566;50.006;36.180;2023-03-01T16:14:29;99947.28;;;0.44;64.34
54666;BME280;40566;50.006;36.180;2023-03-01T16:19:30;99958.06;;;0.31;64.33
54666;BME280;40566;50.006;36.180;2023-03-01T16:24:30;99960.28;;;0.11;64.63
54666;BME280;40566;50.006;36.180;2023-03-01T16:29:31;99957.56;;;0.00;64.70
54666;BME280;40566;50.006;36.180;2023-03-01T16:34:32;99958.25;;;-0.07;64.46
54666;BME280;40566;50.006;36.180;2023-03-01T16:39:32;99964.75;;;-0.23;64.77
54666;BME280;40566;50.006;36.180;2023-03-01T16:44:33;99967.06;;;-0.34;64.78
54666;BME280;40566;50.006;36.180;2023-03-01T16:49:33;99967.78;;;-0.40;64.61
54666;BME280;40566;50.006;36.180;2023-03-01T16:54:34;99961.63;;;-0.52;64.54
54666;BME280;40566;50.006;36.180;2023-03-01T16:59:34;99958.03;;;-0.62;64.63
54666;BME280;40566;50.006;36.180;2023-03-01T17:04:35;99969.75;;;-0.67;64.59
54666;BME280;40566;50.006;36.180;2023-03-01T17:09:37;99975.59;;;-0.71;64.40
54666;BME280;40566;50.006;36.180;2023-03-01T17:14:37;99986.44;;;-0.80;64.51
54666;BME280;40566;50.006;36.180;2023-03-01T17:19:39;99975.28;;;-0.87;64.35
54666;BME280;40566;50.006;36.180;2023-03-01T17:24:40;99975.97;;;-0.94;64.42
54666;BME280;40566;50.006;36.180;2023-03-01T17:29:41;99971.50;;;-1.04;64.39
54666;BME280;40566;50.006;36.180;2023-03-01T17:34:42;99979.88;;;-1.08;64.38
54666;BME280;40566;50.006;36.180;2023-03-01T17:39:42;99977.22;;;-1.14;64.21
54666;BME280;40566;50.006;36.180;2023-03-01T17:44:43;99976.31;;;-1.16;64.03
54666;BME280;40566;50.006;36.180;2023-03-01T17:49:44;99968.53;;;-1.23;64.07
54666;BME280;40566;50.006;36.180;2023-03-01T17:54:44;99969.19;;;-1.31;64.16
54666;BME280;40566;50.006;36.180;2023-03-01T17:59:45;99975.72;;;-1.41;64.22
54666;BME280;40566;50.006;36.180;2023-03-01T18:04:45;99973.00;;;-1.49;64.26
54666;BME280;40566;50.006;36.180;2023-03-01T18:09:46;99983.09;;;-1.50;63.96
54666;BME280;40566;50.006;36.180;2023-03-01T18:14:50;99987.22;;;-1.55;63.91
54666;BME280;40566;50.006;36.180;2023-03-01T18:19:52;100000.34;;;-1.70;64.22
54666;BME280;40566;50.006;36.180;2023-03-01T18:24:55;99999.47;;;-1.72;64.07
54666;BME280;40566;50.006;36.180;2023-03-01T18:29:56;100008.50;;;-1.82;64.07
54666;BME280;40566;50.006;36.180;2023-03-01T18:34:56;100012.03;;;-1.77;63.99
54666;BME280;40566;50.006;36.180;2023-03-01T18:39:57;100012.50;;;-1.58;63.53
54666;BME280;40566;50.006;36.180;2023-03-01T18:44:57;100018.81;;;-1.43;63.04
54666;BME280;40566;50.006;36.180;2023-03-01T18:49:58;100027.69;;;-1.25;62.81
54666;BME280;40566;50.006;36.180;2023-03-01T18:54:59;100031.97;;;-1.24;63.03
54666;BME280;40566;50.006;36.180;2023-03-01T18:59:59;100030.50;;;-1.14;62.92
54666;BME280;40566;50.006;36.180;2023-03-01T19:05:00;100027.06;;;-1.16;63.08
54666;BME280;40566;50.006;36.180;2023-03-01T19:10:01;100039.72;;;-1.18;63.31
54666;BME280;40566;50.006;36.180;2023-03-01T19:15:03;100028.28;;;-1.35;63.62
54666;BME280;40566;50.006;36.180;2023-03-01T19:20:05;100023.53;;;-1.56;64.09
54666;BME280;40566;50.006;36.180;2023-03-01T19:25:06;100041.19;;;-1.61;63.98
54666;BME280;40566;50.006;36.180;2023-03-01T19:30:07;100037.44;;;-1.75;64.27
54666;BME280;40566;50.006;36.180;2023-03-01T19:35:08;100039.81;;;-1.82;64.07
54666;BME280;40566;50.006;36.180;2023-03-01T19:40:09;100038.72;;;-1.90;64.10
54666;BME280;40566;50.006;36.180;2023-03-01T19:45:10;100030.19;;;-1.93;64.02
54666;BME280;40566;50.006;36.180;2023-03-01T19:50:11;100040.13;;;-2.00;64.12
54666;BME280;40566;50.006;36.180;2023-03-01T19:55:13;100036.53;;;-2.08;63.88
54666;BME280;40566;50.006;36.180;2023-03-01T20:00:14;100031.19;;;-2.18;64.32
54666;BME280;40566;50.006;36.180;2023-03-01T20:05:15;100031.06;;;-2.23;64.34
54666;BME280;40566;50.006;36.180;2023-03-01T20:10:16;100024.94;;;-2.30;64.21
54666;BME280;40566;50.006;36.180;2023-03-01T20:15:17;100028.22;;;-2.34;64.27
54666;BME280;40566;50.006;36.180;2023-03-01T20:20:18;100023.91;;;-2.36;64.19
54666;BME280;40566;50.006;36.180;2023-03-01T20:25:18;100023.91;;;-2.36;64.04
54666;BME280;40566;50.006;36.180;2023-03-01T20:30:19;100020.22;;;-2.48;64.19
54666;BME280;40566;50.006;36.180;2023-03-01T20:35:20;100031.69;;;-2.59;64.49
54666;BME280;40566;50.006;36.180;2023-03-01T20:40:21;100022.38;;;-2.60;64.51
54666;BME280;40566;50.006;36.180;2023-03-01T20:45:26;100025.50;;;-2.69;64.61
54666;BME280;40566;50.006;36.180;2023-03-01T20:50:26;100027.72;;;-2.80;64.73
54666;BME280;40566;50.006;36.180;2023-03-01T20:55:27;100027.72;;;-2.80;64.60
54666;BME280;40566;50.006;36.180;2023-03-01T21:00:27;100032.59;;;-2.86;64.62
54666;BME280;40566;50.006;36.180;2023-03-01T21:05:29;100029.22;;;-2.86;64.37
54666;BME280;40566;50.006;36.180;2023-03-01T21:10:31;100026.94;;;-2.77;64.02
54666;BME280;40566;50.006;36.180;2023-03-01T21:15:32;100043.69;;;-2.81;64.13
54666;BME280;40566;50.006;36.180;2023-03-01T21:20:33;100046.63;;;-2.68;63.77
54666;BME280;40566;50.006;36.180;2023-03-01T21:25:33;100045.53;;;-2.48;63.40
54666;BME280;40566;50.006;36.180;2023-03-01T21:30:37;100048.75;;;-2.25;63.03
54666;BME280;40566;50.006;36.180;2023-03-01T21:35:38;100052.63;;;-2.06;62.83
54666;BME280;40566;50.006;36.180;2023-03-01T21:40:38;100036.81;;;-1.98;62.68
54666;BME280;40566;50.006;36.180;2023-03-01T21:45:40;100027.66;;;-1.93;62.73
54666;BME280;40566;50.006;36.180;2023-03-01T21:50:41;100028.56;;;-1.91;63.14
54666;BME280;40566;50.006;36.180;2023-03-01T21:55:46;100021.75;;;-1.92;63.11
54666;BME280;40566;50.006;36.180;2023-03-01T22:00:47;100035.50;;;-1.84;63.15
54666;BME280;40566;50.006;36.180;2023-03-01T22:05:55;100032.63;;;-1.96;63.17
54666;BME280;40566;50.006;36.180;2023-03-01T22:10:56;100022.28;;;-2.04;63.21
54666;BME280;40566;50.006;36.180;2023-03-01T22:15:59;99999.25;;;-2.12;63.42
54666;BME280;40566;50.006;36.180;2023-03-01T22:21:04;99999.41;;;-2.07;63.70
54666;BME280;40566;50.006;36.180;2023-03-01T22:26:08;99995.75;;;-2.17;63.65
54666;BME280;40566;50.006;36.180;2023-03-01T22:31:09;99986.63;;;-2.10;63.66
54666;BME280;40566;50.006;36.180;2023-03-01T22:36:10;99990.22;;;-2.02;63.41
54666;BME280;40566;50.006;36.180;2023-03-01T22:41:10;99991.19;;;-1.98;63.28
54666;BME280;40566;50.006;36.180;2023-03-01T22:46:13;99982.03;;;-1.92;63.15
54666;BME280;40566;50.006;36.180;2023-03-01T22:51:24;99989.63;;;-1.93;63.03
54666;BME280;40566;50.006;36.180;2023-03-01T22:56:27;99983.63;;;-1.97;63.28
54666;BME280;40566;50.006;36.180;2023-03-01T23:01:29;99983.56;;;-1.98;63.25
54666;BME280;40566;50.006;36.180;2023-03-01T23:06:30;99981.84;;;-2.00;63.10
54666;BME280;40566;50.006;36.180;2023-03-01T23:11:31;99981.69;;;-2.06;63.36
54666;BME280;40566;50.006;36.180;2023-03-01T23:16:31;99985.72;;;-2.12;63.68
54666;BME280;40566;50.006;36.180;2023-03-01T23:21:32;99979.97;;;-2.07;63.23
54666;BME280;40566;50.006;36.180;2023-03-01T23:26:33;99985.16;;;-2.02;63.36
54666;BME280;40566;50.006;36.180;2023-03-01T23:31:34;99980.88;;;-2.05;63.22
54666;BME280;40566;50.006;36.180;2023-03-01T23:36:35;99973.44;;;-1.98;63.31
54666;BME280;40566;50.006;36.180;2023-03-01T23:41:35;99955.44;;;-2.08;63.63
54666;BME280;40566;50.006;36.180;2023-03-01T23:46:36;99957.31;;;-2.01;63.04
54666;BME280;40566;50.006;36.180;2023-03-01T23:51:42;99954.84;;;-1.97;63.50
54666;BME280;40566;50.006;36.180;2023-03-01T23:56:44;99950.72;;;-1.94;63.22
